Time;durP1;ratioP1;P1;durP2;ratioP2;P2;SDS_P1;SDS_P2;PMS_P1;PMS_P2;Temp;Humidity;BMP_temperature;BMP_pressure;BME280_temperature;BME280_humidity;BME280_pressure;Samples;Min_cycle;Max_cycle;Signal;HPM_P1;HPM_P2
2021/03/10 00:00:42;;;;;;;13.70;7.53;;;5.20;99.90;;;;;;1970735;72;21560;-79
2021/03/10 00:03:08;;;;;;;14.50;7.05;;;5.20;99.90;;;;;;1974433;72;21519;-80
2021/03/10 00:05:35;;;;;;;14.55;7.62;;;5.20;99.90;;;;;;1975136;72;21434;-80
2021/03/10 00:08:01;;;;;;;16.25;7.60;;;5.20;99.90;;;;;;1972269;72;21059;-80
2021/03/10 00:10:27;;;;;;;13.03;7.95;;;5.20;99.90;;;;;;1971184;72;21124;-80
2021/03/10 00:12:53;;;;;;;13.20;7.33;;;5.20;99.90;;;;;;1974493;73;20996;-81
2021/03/10 00:15:19;;;;;;;12.95;8.15;;;5.10;99.90;;;;;;1966976;72;21053;-80
2021/03/10 00:17:46;;;;;;;11.63;7.03;;;5.20;99.90;;;;;;1974441;73;21047;-80
2021/03/10 00:20:12;;;;;;;13.85;7.50;;;5.10;99.90;;;;;;1971058;72;21070;-79
2021/03/10 00:22:38;;;;;;;18.17;7.97;;;5.00;99.90;;;;;;1962954;72;21131;-78
2021/03/10 00:25:05;;;;;;;13.83;8.40;;;5.00;99.90;;;;;;1973060;72;21021;-78
2021/03/10 00:27:31;;;;;;;13.50;8.15;;;5.00;99.90;;;;;;1969876;72;21035;-78
2021/03/10 00:29:57;;;;;;;14.47;7.75;;;4.90;99.90;;;;;;1970800;72;21091;-78
2021/03/10 00:32:23;;;;;;;18.65;8.28;;;5.00;99.90;;;;;;1974030;73;21093;-78
2021/03/10 00:34:49;;;;;;;12.75;8.05;;;5.00;99.90;;;;;;1973709;72;21124;-78
2021/03/10 00:37:15;;;;;;;13.30;7.53;;;5.00;99.90;;;;;;1972840;72;21141;-78
2021/03/10 00:39:41;;;;;;;11.73;7.28;;;5.00;99.90;;;;;;1975241;72;21067;-78
2021/03/10 00:42:08;;;;;;;15.23;8.68;;;5.00;99.90;;;;;;1970806;72;21085;-79
2021/03/10 00:44:34;;;;;;;16.62;8.03;;;4.90;99.90;;;;;;1974061;73;21047;-78
2021/03/10 00:47:00;;;;;;;11.78;8.25;;;4.90;99.90;;;;;;1977835;72;21062;-78
2021/03/10 00:49:26;;;;;;;12.58;7.95;;;4.90;99.90;;;;;;1979317;72;21124;-78
2021/03/10 00:51:52;;;;;;;12.30;7.53;;;4.90;99.90;;;;;;1974006;73;21031;-78
2021/03/10 00:54:18;;;;;;;17.65;7.85;;;4.90;99.90;;;;;;1970822;72;21108;-80
2021/03/10 00:56:44;;;;;;;13.22;7.85;;;4.90;99.90;;;;;;1969737;72;21428;-78
2021/03/10 00:59:10;;;;;;;14.00;7.83;;;5.00;99.90;;;;;;1967977;72;21019;-78
2021/03/10 01:01:37;;;;;;;14.58;8.60;;;4.90;99.90;;;;;;1974872;72;21062;-79
2021/03/10 01:04:03;;;;;;;15.15;8.10;;;4.90;99.90;;;;;;1975534;72;21187;-78
2021/03/10 01:06:29;;;;;;;14.73;8.50;;;4.90;99.90;;;;;;1970507;72;21096;-79
2021/03/10 01:08:55;;;;;;;15.15;8.48;;;4.90;99.90;;;;;;1970885;72;21095;-78
2021/03/10 01:11:23;;;;;;;14.90;9.33;;;4.90;99.90;;;;;;1974310;72;21070;-78
2021/03/10 01:13:49;;;;;;;12.73;7.55;;;4.90;99.90;;;;;;1963414;72;21046;-79
2021/03/10 01:16:15;;;;;;;14.53;8.03;;;5.00;99.90;;;;;;1972677;72;21060;-78
2021/03/10 01:18:41;;;;;;;16.12;8.40;;;5.00;99.90;;;;;;1962925;72;21057;-76
2021/03/10 01:21:07;;;;;;;14.40;8.50;;;5.00;99.90;;;;;;1968582;72;21135;-78
2021/03/10 01:23:33;;;;;;;15.00;8.00;;;4.90;99.90;;;;;;1978203;72;21068;-78
2021/03/10 01:25:59;;;;;;;15.05;8.28;;;4.90;99.90;;;;;;1970670;72;21067;-79
2021/03/10 01:28:25;;;;;;;13.75;8.48;;;5.10;99.90;;;;;;1983378;72;21432;-78
2021/03/10 01:30:52;;;;;;;16.23;8.40;;;5.00;99.90;;;;;;1984684;72;21467;-78
2021/03/10 01:33:18;;;;;;;16.95;7.92;;;5.00;99.90;;;;;;1975523;72;21546;-78
2021/03/10 01:35:44;;;;;;;21.50;9.43;;;4.90;99.90;;;;;;1972660;72;21472;-78
2021/03/10 01:38:10;;;;;;;17.15;8.30;;;4.90;99.90;;;;;;1971766;72;21092;-78
2021/03/10 01:40:36;;;;;;;13.95;8.25;;;4.80;99.90;;;;;;1967420;72;21094;-80
2021/03/10 01:43:02;;;;;;;15.80;8.60;;;4.80;99.90;;;;;;1974434;72;21063;-78
2021/03/10 01:45:28;;;;;;;13.18;7.95;;;4.70;99.90;;;;;;1979064;72;21211;-78
2021/03/10 01:47:54;;;;;;;16.05;9.50;;;4.70;99.90;;;;;;1981152;72;21050;-78
2021/03/10 01:50:20;;;;;;;15.25;9.03;;;4.70;99.90;;;;;;1972645;72;21129;-78
2021/03/10 01:52:49;;;;;;;13.70;8.28;;;4.60;99.90;;;;;;1975295;72;21113;-78
2021/03/10 01:55:14;;;;;;;14.68;8.98;;;4.60;99.90;;;;;;1975002;72;21100;-78
2021/03/10 01:57:41;;;;;;;19.70;9.45;;;4.60;99.90;;;;;;1973891;72;21060;-78
2021/03/10 02:00:07;;;;;;;16.05;9.48;;;4.70;99.90;;;;;;1973859;72;21137;-78
2021/03/10 02:02:33;;;;;;;14.53;9.33;;;4.60;99.90;;;;;;1963323;72;21110;-78
2021/03/10 02:04:59;;;;;;;18.48;9.23;;;4.60;99.90;;;;;;1981823;72;21073;-79
2021/03/10 02:07:25;;;;;;;21.30;9.55;;;4.60;99.90;;;;;;1984229;72;21132;-79
2021/03/10 02:09:51;;;;;;;20.20;9.00;;;4.60;99.90;;;;;;1977151;72;21036;-78
2021/03/10 02:12:17;;;;;;;19.42;9.78;;;4.60;99.90;;;;;;1973942;72;21455;-78
2021/03/10 02:14:43;;;;;;;17.40;9.08;;;4.60;99.90;;;;;;1971655;72;21516;-80
2021/03/10 02:17:10;;;;;;;17.35;10.38;;;4.60;99.90;;;;;;1982527;72;21542;-78
2021/03/10 02:19:36;;;;;;;13.68;9.43;;;4.60;99.90;;;;;;1967459;72;21248;-78
2021/03/10 02:22:02;;;;;;;19.55;9.75;;;4.60;99.90;;;;;;1979892;72;21120;-78
2021/03/10 02:24:28;;;;;;;23.15;10.10;;;4.60;99.90;;;;;;1970506;72;21562;-78
2021/03/10 02:26:54;;;;;;;19.70;10.03;;;4.70;99.90;;;;;;1977629;72;21447;-76
2021/03/10 02:29:20;;;;;;;20.52;10.98;;;4.70;99.90;;;;;;1973963;72;21412;-78
2021/03/10 02:31:47;;;;;;;17.95;9.78;;;4.60;99.90;;;;;;1961344;72;21467;-78
2021/03/10 02:34:13;;;;;;;18.75;9.68;;;4.60;99.90;;;;;;1975680;72;21059;-78
2021/03/10 02:36:39;;;;;;;19.87;10.35;;;4.60;99.90;;;;;;1974150;72;21111;-78
2021/03/10 02:39:05;;;;;;;18.75;9.70;;;4.70;99.90;;;;;;1974068;72;21120;-78
2021/03/10 02:41:32;;;;;;;18.40;10.30;;;4.70;99.90;;;;;;1970321;72;21483;-78
2021/03/10 02:43:58;;;;;;;21.00;10.55;;;4.70;99.90;;;;;;1972168;72;21119;-78
2021/03/10 02:46:24;;;;;;;24.05;10.48;;;4.70;99.90;;;;;;1974834;72;21064;-78
2021/03/10 02:48:50;;;;;;;14.90;9.30;;;4.70;99.90;;;;;;1970236;72;21031;-78
2021/03/10 02:51:16;;;;;;;17.87;9.43;;;4.70;99.90;;;;;;1956868;72;21054;-78
2021/03/10 02:53:43;;;;;;;20.75;9.63;;;4.60;99.90;;;;;;1984121;72;21120;-78
2021/03/10 02:56:09;;;;;;;26.17;9.78;;;4.70;99.90;;;;;;1976721;72;21515;-78
2021/03/10 02:58:35;;;;;;;18.35;9.90;;;4.60;99.90;;;;;;1967393;72;21471;-78
2021/03/10 03:01:01;;;;;;;17.32;10.30;;;4.50;99.90;;;;;;1974631;72;21071;-79
2021/03/10 03:03:27;;;;;;;16.35;10.20;;;4.60;99.90;;;;;;1971188;72;21058;-79
2021/03/10 03:05:53;;;;;;;20.95;10.48;;;4.60;99.90;;;;;;1977135;72;21144;-78
2021/03/10 03:08:19;;;;;;;18.27;9.93;;;4.50;99.90;;;;;;1974560;72;21095;-79
2021/03/10 03:10:45;;;;;;;18.82;9.83;;;4.60;99.90;;;;;;1974491;72;21055;-79
2021/03/10 03:13:11;;;;;;;19.37;9.65;;;4.50;99.90;;;;;;1978690;72;21059;-78
2021/03/10 03:15:38;;;;;;;19.73;10.13;;;4.50;99.90;;;;;;1972598;72;21052;-79
2021/03/10 03:18:04;;;;;;;18.05;10.50;;;4.60;99.90;;;;;;1968953;72;21054;-79
2021/03/10 03:20:30;;;;;;;15.63;10.23;;;4.50;99.90;;;;;;1982746;72;21063;-78
2021/03/10 03:22:56;;;;;;;19.27;9.43;;;4.50;99.90;;;;;;1975280;72;21062;-79
2021/03/10 03:25:22;;;;;;;16.05;9.78;;;4.60;99.90;;;;;;1976662;72;21067;-79
2021/03/10 03:27:48;;;;;;;18.90;10.63;;;4.60;99.90;;;;;;1973269;72;21068;-79
2021/03/10 03:30:14;;;;;;;16.25;10.13;;;4.50;99.90;;;;;;1965612;72;21060;-79
2021/03/10 03:32:40;;;;;;;18.50;9.93;;;4.50;99.90;;;;;;1973806;72;21135;-79
2021/03/10 03:35:07;;;;;;;17.00;9.35;;;4.50;99.90;;;;;;1971364;72;21560;-79
2021/03/10 03:37:33;;;;;;;18.15;9.10;;;4.50;99.90;;;;;;1966486;72;21440;-79
2021/03/10 03:39:59;;;;;;;17.67;11.15;;;4.50;99.90;;;;;;1974619;73;21518;-79
2021/03/10 03:42:25;;;;;;;24.60;10.63;;;4.40;99.90;;;;;;1974379;72;21487;-79
2021/03/10 03:44:51;;;;;;;17.35;10.28;;;4.40;99.90;;;;;;1970998;72;21059;-79
2021/03/10 03:47:17;;;;;;;19.62;10.15;;;4.40;99.90;;;;;;1971176;72;21071;-79
2021/03/10 03:49:43;;;;;;;27.40;10.50;;;4.40;99.90;;;;;;1970313;72;21050;-79
2021/03/10 03:52:09;;;;;;;20.10;9.95;;;4.40;99.90;;;;;;1971964;72;21091;-78
2021/03/10 03:54:35;;;;;;;19.65;10.48;;;4.40;99.90;;;;;;1970798;72;21055;-78
2021/03/10 03:57:02;;;;;;;22.73;11.12;;;4.40;99.90;;;;;;1973528;72;21132;-78
2021/03/10 03:59:28;;;;;;;21.95;10.82;;;4.40;99.90;;;;;;1971121;72;21067;-78
2021/03/10 04:01:54;;;;;;;20.62;9.70;;;4.40;99.90;;;;;;1980938;72;21112;-78
2021/03/10 04:04:20;;;;;;;19.00;9.75;;;4.50;99.90;;;;;;1971235;72;21060;-78
2021/03/10 04:06:46;;;;;;;18.40;10.23;;;4.50;99.90;;;;;;1972273;72;21094;-78
2021/03/10 04:09:12;;;;;;;28.47;11.18;;;4.40;99.90;;;;;;1971788;72;21140;-78
2021/03/10 04:11:38;;;;;;;17.77;11.08;;;4.50;99.90;;;;;;1974609;72;21129;-78
2021/03/10 04:14:04;;;;;;;18.60;9.83;;;4.50;99.90;;;;;;1976812;72;21128;-78
2021/03/10 04:16:31;;;;;;;17.67;9.80;;;4.50;99.90;;;;;;1975798;72;21034;-78
2021/03/10 04:18:57;;;;;;;18.62;10.10;;;4.50;99.90;;;;;;1991643;72;21449;-78
2021/03/10 04:21:23;;;;;;;18.37;10.20;;;4.50;99.90;;;;;;1991435;72;21502;-78
2021/03/10 04:23:49;;;;;;;18.75;9.38;;;4.40;99.90;;;;;;1970001;72;21590;-80
2021/03/10 04:26:15;;;;;;;22.95;10.18;;;4.40;99.90;;;;;;1974451;73;21471;-80
2021/03/10 04:28:41;;;;;;;22.52;10.20;;;4.40;99.90;;;;;;1973056;72;21062;-80
2021/03/10 04:31:07;;;;;;;21.75;10.45;;;4.60;99.90;;;;;;1979108;72;21049;-80
2021/03/10 04:33:33;;;;;;;25.35;11.33;;;4.60;99.90;;;;;;1974714;73;21059;-80
2021/03/10 04:36:00;;;;;;;19.52;10.82;;;4.50;99.90;;;;;;1974489;72;21102;-80
2021/03/10 04:38:26;;;;;;;20.40;10.75;;;4.40;99.90;;;;;;1972134;72;21057;-80
2021/03/10 04:40:52;;;;;;;21.52;11.18;;;4.50;99.90;;;;;;1963712;72;21027;-80
2021/03/10 04:43:18;;;;;;;18.45;10.10;;;4.60;99.90;;;;;;1970844;72;21137;-80
2021/03/10 04:45:44;;;;;;;17.82;10.63;;;4.50;99.90;;;;;;1974512;72;21059;-80
2021/03/10 04:48:10;;;;;;;18.77;10.68;;;4.60;99.90;;;;;;1974598;72;21051;-80
2021/03/10 04:50:36;;;;;;;19.35;10.43;;;4.60;99.90;;;;;;1972624;72;21055;-80
2021/03/10 04:53:02;;;;;;;19.02;10.68;;;4.70;99.90;;;;;;1975441;72;21032;-80
2021/03/10 04:55:29;;;;;;;19.73;10.55;;;4.80;99.90;;;;;;1968879;72;21100;-80
2021/03/10 04:57:55;;;;;;;20.85;10.75;;;4.70;99.90;;;;;;1970851;72;21129;-80
2021/03/10 05:00:21;;;;;;;21.07;10.43;;;4.80;99.90;;;;;;1988692;72;21072;-80
2021/03/10 05:02:47;;;;;;;16.77;9.98;;;4.80;99.90;;;;;;1981242;72;21035;-80
2021/03/10 05:05:13;;;;;;;23.40;10.18;;;4.80;99.90;;;;;;1971053;72;21068;-80
2021/03/10 05:07:39;;;;;;;25.43;10.85;;;4.70;99.90;;;;;;1982051;72;21587;-80
2021/03/10 05:10:05;;;;;;;20.75;11.00;;;4.70;99.90;;;;;;1975895;72;21509;-80
2021/03/10 05:12:31;;;;;;;18.67;10.78;;;4.80;99.90;;;;;;1983479;72;21467;-80
2021/03/10 05:14:58;;;;;;;18.98;9.98;;;4.70;99.90;;;;;;1968406;72;21031;-81
2021/03/10 05:17:25;;;;;;;17.62;10.60;;;4.70;99.90;;;;;;1984259;72;21048;-80
2021/03/10 05:19:51;;;;;;;23.70;11.55;;;4.70;99.90;;;;;;1974092;72;21120;-80
2021/03/10 05:22:17;;;;;;;22.58;11.28;;;4.70;99.90;;;;;;1974705;72;21043;-80
2021/03/10 05:24:43;;;;;;;23.25;11.68;;;4.70;99.90;;;;;;1974871;72;21062;-80
2021/03/10 05:27:10;;;;;;;19.02;11.63;;;4.60;99.90;;;;;;1970031;72;21027;-81
2021/03/10 05:29:36;;;;;;;20.68;10.35;;;4.60;99.90;;;;;;1971799;72;21059;-80
2021/03/10 05:32:02;;;;;;;19.77;10.63;;;4.50;99.90;;;;;;1968604;72;21066;-81
2021/03/10 05:34:28;;;;;;;24.32;11.83;;;4.70;99.90;;;;;;1976688;72;21062;-80
2021/03/10 05:36:54;;;;;;;22.32;11.75;;;4.60;99.90;;;;;;1984376;72;21116;-79
2021/03/10 05:39:20;;;;;;;19.23;11.45;;;4.60;99.90;;;;;;1973669;72;21047;-78
2021/03/10 05:41:46;;;;;;;24.00;12.73;;;4.70;99.90;;;;;;1984207;72;21054;-78
2021/03/10 05:44:12;;;;;;;31.00;12.13;;;4.70;99.90;;;;;;1974640;73;21120;-78
2021/03/10 05:46:39;;;;;;;22.75;12.33;;;4.80;99.90;;;;;;1974475;72;21056;-78
2021/03/10 05:49:05;;;;;;;21.40;11.93;;;4.70;99.90;;;;;;1973321;72;21036;-83
2021/03/10 05:51:31;;;;;;;23.85;12.85;;;4.70;99.90;;;;;;1973356;72;21054;-83
2021/03/10 05:53:57;;;;;;;26.97;14.00;;;4.70;99.90;;;;;;1969616;72;21103;-77
2021/03/10 05:56:23;;;;;;;24.65;13.72;;;4.70;99.90;;;;;;1991196;72;21128;-76
2021/03/10 05:58:49;;;;;;;25.05;13.28;;;4.70;99.90;;;;;;1986626;72;21483;-81
2021/03/10 06:01:15;;;;;;;26.25;12.95;;;4.70;99.90;;;;;;1971277;72;21478;-78
2021/03/10 06:03:41;;;;;;;24.10;11.88;;;4.70;99.90;;;;;;1974620;73;21452;-84
2021/03/10 06:06:08;;;;;;;25.45;13.50;;;4.70;99.90;;;;;;1971207;72;21468;-82
2021/03/10 06:08:34;;;;;;;25.00;13.00;;;4.80;99.90;;;;;;1974528;72;21116;-81
2021/03/10 06:11:00;;;;;;;23.47;13.00;;;4.80;99.90;;;;;;1969080;72;21063;-80
2021/03/10 06:13:26;;;;;;;28.02;13.38;;;4.80;99.90;;;;;;1976385;72;21130;-81
2021/03/10 06:15:52;;;;;;;23.73;11.70;;;4.70;99.90;;;;;;1969080;72;21044;-82
2021/03/10 06:18:18;;;;;;;28.87;12.53;;;4.70;99.90;;;;;;1982271;72;21044;-84
2021/03/10 06:20:44;;;;;;;30.97;13.75;;;4.70;99.90;;;;;;1974577;73;21113;-81
2021/03/10 06:23:10;;;;;;;29.42;13.25;;;4.70;99.90;;;;;;1974544;72;21071;-79
2021/03/10 06:25:37;;;;;;;30.88;13.38;;;4.80;99.90;;;;;;1973356;72;21032;-81
2021/03/10 06:28:03;;;;;;;31.05;12.63;;;4.80;99.90;;;;;;1964655;72;21058;-82
2021/03/10 06:30:29;;;;;;;24.47;13.30;;;5.00;99.90;;;;;;1979706;72;21548;-82
2021/03/10 06:32:55;;;;;;;26.80;12.80;;;4.90;99.90;;;;;;1981752;72;21528;-79
2021/03/10 06:35:21;;;;;;;24.20;12.53;;;4.90;99.90;;;;;;1972458;72;21475;-80
2021/03/10 06:37:47;;;;;;;27.13;12.73;;;4.90;99.90;;;;;;1970364;72;21450;-81
2021/03/10 06:40:13;;;;;;;32.45;13.20;;;4.80;99.90;;;;;;1986878;72;21047;-82
2021/03/10 06:42:39;;;;;;;30.50;13.58;;;4.90;99.90;;;;;;1963477;72;21109;-82
2021/03/10 06:45:06;;;;;;;30.75;15.58;;;4.90;99.90;;;;;;1974110;72;21118;-82
2021/03/10 06:47:32;;;;;;;21.02;12.18;;;5.00;99.90;;;;;;1988766;72;21020;-79
2021/03/10 06:49:58;;;;;;;28.35;13.83;;;5.00;99.90;;;;;;1975736;72;21063;-81
2021/03/10 06:52:24;;;;;;;27.52;12.73;;;5.00;99.90;;;;;;1971248;72;21051;-83
2021/03/10 06:54:50;;;;;;;21.27;12.90;;;5.20;99.90;;;;;;1974478;72;21265;-82
2021/03/10 06:57:16;;;;;;;24.60;13.15;;;5.20;99.90;;;;;;1979232;72;21055;-81
2021/03/10 07:02:18;;;;;;;24.52;12.07;;;5.30;99.90;;;;;;1974272;71;21128;-79
2021/03/10 07:04:44;;;;;;;26.25;12.68;;;5.20;99.90;;;;;;1990486;71;21124;-80
2021/03/10 07:07:10;;;;;;;22.65;13.38;;;5.20;99.90;;;;;;1988280;71;21058;-81
2021/03/10 07:09:36;;;;;;;25.57;13.00;;;5.20;99.90;;;;;;1987266;71;21039;-81
2021/03/10 07:12:02;;;;;;;24.12;12.95;;;5.30;99.90;;;;;;1991627;71;21089;-80
2021/03/10 07:14:28;;;;;;;22.75;11.80;;;5.30;99.90;;;;;;1983311;71;21054;-79
2021/03/10 07:16:55;;;;;;;25.40;12.70;;;5.20;99.90;;;;;;1993002;72;21054;-80
2021/03/10 07:19:21;;;;;;;30.32;13.05;;;5.30;99.90;;;;;;1990673;71;21063;-80
2021/03/10 07:21:47;;;;;;;29.50;12.58;;;5.30;99.90;;;;;;1993092;71;21132;-80
2021/03/10 07:24:13;;;;;;;23.02;12.45;;;5.40;99.90;;;;;;1993089;72;21140;-79
2021/03/10 07:26:40;;;;;;;29.48;12.58;;;5.30;99.90;;;;;;1992862;71;21058;-80
2021/03/10 07:29:06;;;;;;;22.65;12.82;;;5.50;99.90;;;;;;1989711;71;21240;-81
2021/03/10 07:31:32;;;;;;;23.95;12.53;;;5.40;99.90;;;;;;1994867;71;21027;-81
2021/03/10 07:33:58;;;;;;;22.13;12.30;;;5.40;99.90;;;;;;1989948;71;21171;-82
2021/03/10 07:36:24;;;;;;;25.05;13.38;;;5.50;99.90;;;;;;1996361;72;21120;-81
2021/03/10 07:38:50;;;;;;;23.92;11.90;;;5.60;99.90;;;;;;1993058;72;21035;-81
2021/03/10 07:41:16;;;;;;;23.65;12.70;;;5.60;99.90;;;;;;1987230;71;21030;-82
2021/03/10 07:43:42;;;;;;;23.50;12.63;;;5.50;99.90;;;;;;1991870;71;21131;-81
2021/03/10 07:46:08;;;;;;;23.80;12.30;;;5.50;99.90;;;;;;1984284;71;21048;-81
2021/03/10 07:48:35;;;;;;;26.10;13.15;;;5.50;99.90;;;;;;1993815;72;21115;-82
2021/03/10 07:51:01;;;;;;;23.30;11.95;;;5.50;99.90;;;;;;1992958;72;21015;-81
2021/03/10 07:53:27;;;;;;;25.00;12.43;;;5.60;99.90;;;;;;1992753;72;21054;-81
2021/03/10 07:55:53;;;;;;;20.88;12.75;;;5.50;99.90;;;;;;1981767;71;21113;-80
2021/03/10 07:58:19;;;;;;;23.18;13.05;;;5.50;99.90;;;;;;1984647;71;21119;-79
2021/03/10 08:00:45;;;;;;;30.10;12.98;;;5.50;99.90;;;;;;1989079;71;21378;-81
2021/03/10 08:03:11;;;;;;;31.80;12.80;;;5.50;99.90;;;;;;1990452;71;21442;-82
2021/03/10 08:05:39;;;;;;;23.70;13.13;;;5.60;99.90;;;;;;1985610;71;21464;-80
2021/03/10 08:08:05;;;;;;;28.73;13.25;;;5.70;99.90;;;;;;1991793;71;21065;-80
2021/03/10 08:10:31;;;;;;;30.68;12.68;;;5.70;99.90;;;;;;1980317;71;21030;-80
2021/03/10 08:12:58;;;;;;;23.52;12.95;;;5.80;99.90;;;;;;1992136;72;21046;-81
2021/03/10 08:15:24;;;;;;;24.20;12.35;;;5.90;99.90;;;;;;1992993;71;21097;-81
2021/03/10 08:17:50;;;;;;;22.50;11.73;;;6.10;99.90;;;;;;1982126;71;21053;-81
2021/03/10 08:20:18;;;;;;;22.37;11.65;;;6.10;99.90;;;;;;1987569;71;21583;-80
2021/03/10 08:22:44;;;;;;;25.68;12.75;;;6.00;99.90;;;;;;1992862;72;21121;-80
2021/03/10 08:25:10;;;;;;;23.80;12.50;;;6.10;99.90;;;;;;1992964;71;21108;-81
2021/03/10 08:27:36;;;;;;;26.15;12.65;;;6.10;99.90;;;;;;1986472;71;21056;-80
2021/03/10 08:30:02;;;;;;;25.12;11.90;;;6.10;99.90;;;;;;1996083;72;21463;-79
2021/03/10 08:32:30;;;;;;;28.07;11.83;;;6.10;99.90;;;;;;1993262;71;21437;-83
2021/03/10 08:35:00;;;;;;;23.75;12.55;;;6.20;99.90;;;;;;1993680;72;21047;-81
2021/03/10 08:37:24;;;;;;;23.62;12.15;;;6.30;99.90;;;;;;1989610;71;21084;-81
2021/03/10 08:39:50;;;;;;;21.73;11.97;;;6.40;99.90;;;;;;1986955;71;21058;-81
2021/03/10 08:42:16;;;;;;;28.00;13.13;;;6.40;99.90;;;;;;1991887;71;21445;-81
2021/03/10 08:44:43;;;;;;;27.93;12.23;;;6.50;99.90;;;;;;1991084;71;21022;-79
2021/03/10 08:47:09;;;;;;;23.50;12.70;;;6.70;99.90;;;;;;1984286;71;21446;-78
2021/03/10 08:49:35;;;;;;;24.00;12.65;;;7.10;99.90;;;;;;1990090;71;21476;-79
2021/03/10 08:52:01;;;;;;;25.75;12.55;;;7.10;99.90;;;;;;1990908;71;21422;-79
2021/03/10 08:54:27;;;;;;;27.48;12.78;;;7.20;99.90;;;;;;1993261;71;21035;-79
2021/03/10 08:56:53;;;;;;;26.30;12.03;;;7.30;99.90;;;;;;1993313;71;21097;-77
2021/03/10 08:59:19;;;;;;;22.05;12.23;;;7.50;99.90;;;;;;1993334;72;21018;-79
2021/03/10 09:01:46;;;;;;;26.80;12.13;;;7.80;99.90;;;;;;1993241;71;21063;-79
2021/03/10 09:04:12;;;;;;;23.27;11.55;;;8.30;99.90;;;;;;1989517;71;21534;-80
2021/03/10 09:06:38;;;;;;;21.30;11.48;;;8.70;99.90;;;;;;1985898;71;21495;-80
2021/03/10 09:09:04;;;;;;;28.57;11.83;;;8.70;99.90;;;;;;1986409;71;21566;-79
2021/03/10 09:11:31;;;;;;;23.87;12.18;;;8.80;99.90;;;;;;1991849;71;21501;-80
2021/03/10 09:13:57;;;;;;;26.05;12.73;;;8.60;99.90;;;;;;1992832;71;21054;-79
2021/03/10 09:16:23;;;;;;;26.17;12.90;;;8.20;99.90;;;;;;1992917;71;21082;-79
2021/03/10 09:18:49;;;;;;;27.82;11.85;;;8.30;99.90;;;;;;1989857;71;21050;-79
2021/03/10 09:21:15;;;;;;;23.25;12.20;;;8.40;99.90;;;;;;1992990;71;21124;-79
2021/03/10 09:23:41;;;;;;;26.60;11.93;;;8.30;99.90;;;;;;1986992;71;21120;-80
2021/03/10 09:26:07;;;;;;;24.18;12.40;;;8.20;99.90;;;;;;1990315;71;21140;-78
2021/03/10 09:28:34;;;;;;;22.15;10.93;;;8.40;99.90;;;;;;1989331;71;21049;-78
2021/03/10 09:31:00;;;;;;;22.45;12.13;;;8.40;99.90;;;;;;1994881;71;21058;-78
2021/03/10 09:33:26;;;;;;;22.85;12.10;;;8.70;99.90;;;;;;1986907;71;21112;-78
2021/03/10 09:35:52;;;;;;;24.30;10.95;;;8.80;99.90;;;;;;1986756;71;21131;-79
2021/03/10 09:38:19;;;;;;;24.40;11.35;;;8.90;99.90;;;;;;1987654;71;21131;-79
2021/03/10 09:40:47;;;;;;;22.17;10.38;;;9.10;99.90;;;;;;1992219;71;21057;-79
2021/03/10 09:43:13;;;;;;;19.87;9.98;;;9.10;99.90;;;;;;1992847;72;21370;-79
2021/03/10 09:45:39;;;;;;;30.70;10.90;;;9.40;99.90;;;;;;1991315;71;21062;-79
2021/03/10 09:48:05;;;;;;;22.13;10.98;;;9.40;99.90;;;;;;1987163;71;21051;-79
2021/03/10 09:50:31;;;;;;;19.90;9.05;;;8.80;99.90;;;;;;1985123;71;21197;-79
2021/03/10 09:52:57;;;;;;;17.85;8.80;;;8.80;99.90;;;;;;1990395;71;21109;-79
2021/03/10 09:55:23;;;;;;;20.20;9.03;;;8.80;99.90;;;;;;1982837;71;21159;-79
2021/03/10 09:57:50;;;;;;;18.35;8.68;;;9.00;99.90;;;;;;1993513;72;21124;-79
2021/03/10 10:00:16;;;;;;;14.78;8.28;;;9.30;99.90;;;;;;1989339;71;21062;-79
2021/03/10 10:02:42;;;;;;;17.73;7.95;;;9.40;99.90;;;;;;1996564;72;21046;-80
2021/03/10 10:05:08;;;;;;;18.32;8.60;;;10.00;99.90;;;;;;1987702;71;21493;-80
2021/03/10 10:07:34;;;;;;;19.32;8.75;;;10.30;99.90;;;;;;1990631;71;21505;-79
2021/03/10 10:10:00;;;;;;;19.87;9.10;;;10.50;99.90;;;;;;1990091;71;21513;-79
2021/03/10 10:12:26;;;;;;;19.20;8.50;;;10.10;99.90;;;;;;1977680;71;21452;-78
2021/03/10 10:14:52;;;;;;;18.17;9.10;;;9.70;99.90;;;;;;1989555;71;21496;-79
2021/03/10 10:17:19;;;;;;;19.10;8.68;;;9.50;99.90;;;;;;1987197;71;21427;-79
2021/03/10 10:19:45;;;;;;;21.52;9.43;;;9.20;99.90;;;;;;1982663;71;21132;-79
2021/03/10 10:22:11;;;;;;;17.98;8.05;;;9.20;99.90;;;;;;1993451;72;21124;-78
2021/03/10 10:24:37;;;;;;;21.30;8.13;;;8.90;99.90;;;;;;1992424;72;21050;-78
2021/03/10 10:27:03;;;;;;;17.27;8.53;;;8.90;99.90;;;;;;1992410;71;21059;-78
2021/03/10 10:29:29;;;;;;;17.73;7.87;;;9.00;99.90;;;;;;1992449;72;21084;-79
2021/03/10 10:31:55;;;;;;;16.57;8.20;;;8.90;99.90;;;;;;1992456;71;21035;-78
2021/03/10 10:34:22;;;;;;;20.43;9.93;;;8.70;99.90;;;;;;1988776;71;21053;-79
2021/03/10 10:36:48;;;;;;;21.85;10.38;;;8.50;99.90;;;;;;1992323;71;21144;-78
2021/03/10 10:39:14;;;;;;;16.85;9.05;;;8.50;99.90;;;;;;1992385;71;21121;-78
2021/03/10 10:41:40;;;;;;;17.27;8.03;;;8.60;99.90;;;;;;1992454;71;21443;-79
2021/03/10 10:44:06;;;;;;;13.93;6.95;;;8.60;99.90;;;;;;1984899;71;21540;-78
2021/03/10 10:46:32;;;;;;;13.32;7.28;;;8.60;99.90;;;;;;1992514;72;21527;-79
2021/03/10 10:48:58;;;;;;;14.98;7.08;;;8.70;99.90;;;;;;1988717;71;21122;-78
2021/03/10 10:51:24;;;;;;;12.82;7.67;;;8.60;99.90;;;;;;1985222;71;21123;-79
2021/03/10 10:53:50;;;;;;;16.07;7.35;;;8.80;99.90;;;;;;1989635;71;21031;-78
2021/03/10 10:56:17;;;;;;;16.95;7.70;;;9.10;99.90;;;;;;1987591;71;21124;-79
2021/03/10 10:58:43;;;;;;;11.97;6.55;;;9.30;99.90;;;;;;1987768;71;21050;-79
2021/03/10 11:01:09;;;;;;;13.83;6.28;;;9.30;99.90;;;;;;1986713;71;21062;-78
2021/03/10 11:03:35;;;;;;;11.45;5.95;;;9.40;99.90;;;;;;1992866;71;21050;-78
2021/03/10 11:06:01;;;;;;;10.93;5.97;;;9.50;99.90;;;;;;1984291;71;21104;-81
2021/03/10 11:08:30;;;;;;;10.63;5.95;;;9.70;99.90;;;;;;1987984;71;21037;-81
2021/03/10 11:10:55;;;;;;;14.33;7.03;;;9.60;99.90;;;;;;1998402;71;21027;-78
2021/03/10 11:13:23;;;;;;;11.95;4.85;;;9.60;99.90;;;;;;1995410;72;20983;-78
2021/03/10 11:15:52;;;;;;;8.58;5.03;;;9.60;99.90;;;;;;1994334;72;21042;-79
2021/03/10 11:18:18;;;;;;;9.13;4.65;;;9.70;99.90;;;;;;1993434;72;21046;-78
2021/03/10 11:20:44;;;;;;;7.45;4.28;;;9.70;99.90;;;;;;1990091;71;21098;-79
2021/03/10 11:23:10;;;;;;;10.35;4.78;;;9.70;99.90;;;;;;1991827;71;21114;-80
2021/03/10 11:25:36;;;;;;;10.63;5.20;;;9.60;99.90;;;;;;1989236;71;21054;-79
2021/03/10 11:28:02;;;;;;;10.15;4.75;;;9.50;99.90;;;;;;1991431;71;21054;-79
2021/03/10 11:30:29;;;;;;;7.45;3.83;;;9.70;99.90;;;;;;1988155;71;21116;-79
2021/03/10 11:32:55;;;;;;;9.38;4.42;;;10.10;99.90;;;;;;1990178;71;21120;-80
2021/03/10 11:35:21;;;;;;;8.25;3.98;;;10.70;99.90;;;;;;1990035;71;21046;-78
2021/03/10 11:37:47;;;;;;;6.15;3.67;;;10.90;99.90;;;;;;1992723;72;21046;-78
2021/03/10 11:40:13;;;;;;;7.05;3.35;;;11.30;99.90;;;;;;1989829;71;21112;-80
2021/03/10 11:42:39;;;;;;;4.90;2.67;;;11.50;99.90;;;;;;1987361;71;21045;-78
2021/03/10 11:45:06;;;;;;;3.42;2.30;;;11.10;99.90;;;;;;1993657;72;21454;-79
2021/03/10 11:47:32;;;;;;;3.83;2.45;;;11.00;99.90;;;;;;1987011;71;21040;-79
2021/03/10 11:49:58;;;;;;;3.70;2.20;;;10.80;99.90;;;;;;1990268;71;21049;-77
2021/03/10 11:52:24;;;;;;;3.37;2.33;;;10.80;99.90;;;;;;1991596;71;21135;-78
2021/03/10 11:54:50;;;;;;;4.10;2.37;;;11.10;99.90;;;;;;1987259;71;21054;-77
2021/03/10 11:57:16;;;;;;;3.25;2.05;;;11.00;99.90;;;;;;1992690;72;21046;-78
2021/03/10 11:59:42;;;;;;;3.35;2.45;;;10.90;99.90;;;;;;1985417;71;21125;-79
2021/03/10 12:02:08;;;;;;;3.87;2.10;;;10.80;99.90;;;;;;1986019;71;21454;-79
2021/03/10 12:04:34;;;;;;;4.53;2.60;;;10.60;99.90;;;;;;1987212;71;21500;-79
2021/03/10 12:07:03;;;;;;;3.15;1.98;;;10.40;99.90;;;;;;1985556;71;21457;-79
2021/03/10 12:09:28;;;;;;;3.52;2.08;;;10.40;99.90;;;;;;1993155;72;21050;-77
2021/03/10 12:11:55;;;;;;;3.02;1.77;;;10.40;99.90;;;;;;1984968;71;21136;-76
2021/03/10 12:14:21;;;;;;;4.03;2.33;;;10.90;99.90;;;;;;1992471;71;21059;-79
2021/03/10 12:16:47;;;;;;;3.98;2.20;;;11.30;99.90;;;;;;1992498;72;21054;-77
2021/03/10 12:19:13;;;;;;;5.40;2.40;;;11.50;99.90;;;;;;1985157;71;21127;-78
2021/03/10 12:21:39;;;;;;;5.55;2.20;;;11.40;99.90;;;;;;1990641;71;21450;-79
2021/03/10 12:24:05;;;;;;;3.12;1.80;;;11.40;99.90;;;;;;1993658;71;21442;-81
2021/03/10 12:26:31;;;;;;;4.67;2.42;;;11.50;99.80;;;;;;1990048;71;21535;-80
2021/03/10 12:28:59;;;;;;;3.77;2.00;;;11.30;99.90;;;;;;1980878;71;21469;-81
2021/03/10 12:31:25;;;;;;;4.90;2.52;;;11.60;99.70;;;;;;1990067;71;21132;-82
2021/03/10 12:33:51;;;;;;;4.15;2.47;;;11.60;99.40;;;;;;1986611;71;21112;-81
2021/03/10 12:36:18;;;;;;;4.30;2.02;;;11.80;99.80;;;;;;1992558;72;21054;-80